Pishan, China
Current Conditions -  °F | °C
As of 8:00 AM on Thursday 27 Nov 2014 (Local Time) from ZWSH Reporting Station
Clear Clear  
Wind Chill: 25°   Ceiling: Unl
Heat Index: 30°   Visibility: 6mi
Dew Point: 21°   Wind: 4mph
Humidity: 69%   Direction: 40°NE
Pressure: 30.06"   Gusts: NA
Location:  37.62°N, 78.28°E
Report Text: ZWSH 270000Z 04002MPS 030V110 CAVOK M01/M06 Q1018 NOSIG
Loading
Personal Weather Stations






























Interactive Weather Map New forecast layout! Learn more

10-Day Weather Forecast

Advertisements
Track Severe Weather on mobile